sim
Sign-in with your pilot id or email,
or register
Callsign
Passwort

Schedule Details

Flight Number: DLH2137
Departure: Munster Osnabruck International -?Airport (EDDG) at 12:00
Arrival: Munich Airport (EDDM) at 13:05
Route: Lufthansa Passenger Schedule. Enter filed route here before submitting Pirep.

Weather Information
Getting current METAR information for EDDG 241050Z 20012G23KT 140V240 9999 SCT038 17/08 Q1004 NOSIG
Getting current METAR information for EDDM 241050Z 27005KT 220V300 9999 FEW026 20/13 Q1010 NOSIG

Schedule Frequency

Route Map